createdAt,value
2023-02-08T00:00:07.813Z,79.00
2023-02-08T00:00:17.844Z,80.10
2023-02-08T00:00:27.810Z,79.40
2023-02-08T00:00:38.046Z,79.00
2023-02-08T00:00:47.813Z,77.70
2023-02-08T00:00:57.826Z,76.50
2023-02-08T00:01:07.898Z,76.70
2023-02-08T00:01:17.811Z,78.00
2023-02-08T00:01:27.815Z,78.30
2023-02-08T00:01:37.821Z,78.70
2023-02-08T00:01:47.817Z,77.20
2023-02-08T00:01:57.816Z,76.90
2023-02-08T00:02:07.830Z,76.00
2023-02-08T00:02:18.775Z,77.60
2023-02-08T00:02:27.930Z,78.10
2023-02-08T00:02:37.870Z,78.00
2023-02-08T00:02:47.903Z,79.00
2023-02-08T00:02:57.879Z,78.40
2023-02-08T00:03:07.816Z,78.00
2023-02-08T00:03:17.854Z,76.50
2023-02-08T00:03:27.851Z,76.30
2023-02-08T00:03:37.847Z,77.10
2023-02-08T00:03:47.913Z,75.70
2023-02-08T00:03:57.843Z,76.60
2023-02-08T00:04:08.391Z,74.80
2023-02-08T00:04:17.799Z,75.00
2023-02-08T00:04:27.806Z,74.20
2023-02-08T00:04:37.800Z,74.80
2023-02-08T00:04:47.809Z,75.30
2023-02-08T00:04:57.806Z,74.20
2023-02-08T00:05:07.817Z,72.80
2023-02-08T00:05:18.698Z,73.30
2023-02-08T00:05:27.801Z,74.20
2023-02-08T00:05:37.803Z,76.00
2023-02-08T00:05:47.841Z,75.60
2023-02-08T00:05:57.793Z,75.10
2023-02-08T00:06:07.800Z,74.10
2023-02-08T00:06:17.891Z,76.20
2023-02-08T00:06:27.789Z,77.00
2023-02-08T00:06:37.802Z,77.00
2023-02-08T00:06:47.814Z,75.20
2023-02-08T00:06:57.791Z,74.10
2023-02-08T00:07:07.794Z,73.90
2023-02-08T00:07:17.812Z,75.20
2023-02-08T00:07:27.804Z,75.40
2023-02-08T00:07:37.793Z,75.20
2023-02-08T00:07:47.807Z,73.80
2023-02-08T00:07:57.790Z,74.20
2023-02-08T00:08:07.928Z,75.00
2023-02-08T00:08:17.797Z,75.10
2023-02-08T00:08:27.801Z,76.10
2023-02-08T00:08:37.802Z,75.10
2023-02-08T00:08:47.793Z,73.90
2023-02-08T00:08:57.796Z,73.40
2023-02-08T00:09:07.793Z,73.20
2023-02-08T00:09:17.846Z,73.60
2023-02-08T00:09:27.803Z,72.20
2023-02-08T00:09:37.794Z,72.20
2023-02-08T00:09:47.781Z,72.90
2023-02-08T00:09:57.778Z,74.30
2023-02-08T00:10:07.782Z,74.50
2023-02-08T00:10:17.792Z,74.80
2023-02-08T00:10:27.775Z,72.60
2023-02-08T00:10:37.861Z,74.10
2023-02-08T00:10:47.777Z,74.20
2023-02-08T00:10:57.786Z,75.60
2023-02-08T00:11:07.780Z,73.00
2023-02-08T00:11:17.786Z,72.10
2023-02-08T00:11:27.789Z,71.60
2023-02-08T00:11:37.808Z,72.50
2023-02-08T00:11:47.782Z,72.60
2023-02-08T00:11:57.772Z,73.50
2023-02-08T00:12:07.873Z,73.60
2023-02-08T00:12:18.718Z,74.20
2023-02-08T00:12:27.774Z,73.50
2023-02-08T00:12:37.778Z,72.40
2023-02-08T00:12:47.765Z,72.70
2023-02-08T00:12:57.776Z,72.30
2023-02-08T00:13:07.772Z,73.50
2023-02-08T00:13:17.766Z,72.70
2023-02-08T00:13:27.873Z,73.20
2023-02-08T00:13:38.607Z,72.10
2023-02-08T00:13:47.763Z,72.60
2023-02-08T00:13:57.764Z,73.60
2023-02-08T00:14:07.803Z,73.50
2023-02-08T00:14:17.773Z,71.60
2023-02-08T00:14:27.820Z,70.80
2023-02-08T00:14:37.782Z,71.70
2023-02-08T00:14:47.766Z,74.50
2023-02-08T00:14:57.769Z,74.50
2023-02-08T00:15:07.864Z,74.00
2023-02-08T00:15:17.775Z,72.60
2023-02-08T00:15:27.786Z,72.60
2023-02-08T00:15:37.777Z,72.70
2023-02-08T00:15:47.818Z,72.60
2023-02-08T00:15:57.794Z,70.30
2023-02-08T00:16:07.863Z,69.40
2023-02-08T00:16:17.949Z,69.60
2023-02-08T00:16:28.707Z,70.70
2023-02-08T00:16:37.759Z,72.10
2023-02-08T00:16:47.757Z,71.30
2023-02-08T00:16:57.760Z,71.50
2023-02-08T00:17:07.755Z,70.00
2023-02-08T00:17:17.779Z,70.20
2023-02-08T00:17:27.752Z,70.90
2023-02-08T00:17:37.766Z,71.10
2023-02-08T00:17:47.771Z,71.60
2023-02-08T00:17:57.755Z,70.90
2023-02-08T00:18:07.835Z,71.50
2023-02-08T00:18:17.794Z,70.10
2023-02-08T00:18:27.747Z,69.80
2023-02-08T00:18:37.756Z,69.40
2023-02-08T00:18:47.804Z,69.10
2023-02-08T00:18:57.751Z,69.80
2023-02-08T00:19:07.743Z,70.70
2023-02-08T00:19:17.822Z,72.00
2023-02-08T00:19:27.748Z,70.90
2023-02-08T00:19:37.830Z,70.60
2023-02-08T00:19:47.743Z,70.40
2023-02-08T00:19:57.756Z,69.60
2023-02-08T00:20:07.743Z,68.50
2023-02-08T00:20:17.751Z,68.70
2023-02-08T00:20:27.779Z,71.30
2023-02-08T00:20:38.057Z,72.20
2023-02-08T00:20:47.757Z,70.70
2023-02-08T00:20:57.753Z,68.20
2023-02-08T00:21:07.753Z,67.00
2023-02-08T00:21:17.769Z,69.10
2023-02-08T00:21:27.748Z,70.10
2023-02-08T00:21:37.768Z,71.70
2023-02-08T00:21:47.735Z,70.50
2023-02-08T00:21:57.738Z,70.20
2023-02-08T00:22:07.897Z,68.70
2023-02-08T00:22:17.734Z,68.60
2023-02-08T00:22:27.817Z,68.60
2023-02-08T00:22:37.733Z,67.50
2023-02-08T00:22:47.739Z,67.60
2023-02-08T00:22:57.744Z,69.10
2023-02-08T00:23:07.734Z,70.10
2023-02-08T00:23:17.741Z,69.90
2023-02-08T00:23:28.734Z,69.10
2023-02-08T00:23:37.736Z,69.00
2023-02-08T00:23:47.735Z,68.10
2023-02-08T00:23:57.735Z,67.10
2023-02-08T00:24:07.761Z,67.30
2023-02-08T00:24:17.740Z,69.20
2023-02-08T00:24:27.747Z,68.30
2023-02-08T00:24:37.743Z,67.70
2023-02-08T00:24:47.953Z,66.10
2023-02-08T00:24:57.746Z,67.80
2023-02-08T00:25:07.739Z,67.80
2023-02-08T00:25:17.745Z,68.70
2023-02-08T00:25:27.745Z,67.60
2023-02-08T00:25:37.720Z,66.90
2023-02-08T00:25:47.742Z,66.20
2023-02-08T00:25:57.725Z,66.40
2023-02-08T00:26:07.732Z,68.10
2023-02-08T00:26:18.782Z,68.20
2023-02-08T00:26:27.725Z,67.70
2023-02-08T00:26:37.721Z,65.70
2023-02-08T00:26:47.721Z,65.00
2023-02-08T00:26:57.818Z,65.10
2023-02-08T00:27:07.715Z,65.40
2023-02-08T00:27:17.714Z,66.10
2023-02-08T00:27:27.814Z,66.90
2023-02-08T00:27:37.729Z,67.90
2023-02-08T00:27:47.850Z,67.60
2023-02-08T00:27:57.760Z,67.40
2023-02-08T00:28:09.425Z,66.40
2023-02-08T00:28:17.852Z,66.20
2023-02-08T00:28:27.754Z,65.70
2023-02-08T00:28:38.706Z,66.10
2023-02-08T00:28:47.741Z,65.40
2023-02-08T00:28:57.709Z,65.80
2023-02-08T00:29:07.800Z,66.30
2023-02-08T00:29:17.746Z,65.90
2023-02-08T00:29:27.700Z,65.70
2023-02-08T00:29:37.720Z,65.30
2023-02-08T00:29:47.717Z,65.30
2023-02-08T00:29:57.763Z,66.30
2023-02-08T00:30:07.707Z,65.90
2023-02-08T00:30:17.741Z,68.10
2023-02-08T00:30:28.710Z,67.10
2023-02-08T00:30:37.921Z,66.10
2023-02-08T00:30:47.728Z,64.70
2023-02-08T00:30:57.810Z,64.80
2023-02-08T00:31:07.799Z,66.40
2023-02-08T00:31:17.872Z,66.70
2023-02-08T00:31:27.824Z,67.20
2023-02-08T00:31:37.900Z,67.30
2023-02-08T00:31:47.775Z,67.10
2023-02-08T00:31:57.780Z,66.20
2023-02-08T00:32:07.696Z,65.10
2023-02-08T00:32:17.699Z,64.50
2023-02-08T00:32:27.719Z,64.80
2023-02-08T00:32:37.709Z,65.30
2023-02-08T00:32:47.710Z,66.60
2023-02-08T00:32:57.694Z,67.50
2023-02-08T00:33:07.706Z,68.40
2023-02-08T00:33:17.766Z,67.90
2023-02-08T00:33:27.697Z,67.20
2023-02-08T00:33:37.695Z,67.20
2023-02-08T00:33:47.705Z,68.40
2023-02-08T00:33:57.697Z,68.60
2023-02-08T00:34:07.686Z,68.10
2023-02-08T00:34:17.704Z,67.00
2023-02-08T00:34:27.719Z,65.90
2023-02-08T00:34:38.200Z,65.10
2023-02-08T00:34:47.681Z,65.20
2023-02-08T00:34:57.696Z,65.30
2023-02-08T00:35:07.795Z,67.50
2023-02-08T00:35:17.687Z,67.30
2023-02-08T00:35:27.697Z,68.60
2023-02-08T00:35:37.696Z,67.00
2023-02-08T00:35:47.685Z,66.30
2023-02-08T00:35:58.203Z,65.80
2023-02-08T00:36:07.768Z,65.70
2023-02-08T00:36:18.198Z,66.30
2023-02-08T00:36:27.792Z,66.30
2023-02-08T00:36:37.673Z,67.30
2023-02-08T00:36:47.689Z,66.70
2023-02-08T00:36:57.688Z,67.30
2023-02-08T00:37:07.681Z,66.00
2023-02-08T00:37:17.681Z,65.80
2023-02-08T00:37:28.210Z,63.90
2023-02-08T00:37:37.674Z,63.60
2023-02-08T00:37:47.680Z,63.80
2023-02-08T00:37:57.682Z,64.50
2023-02-08T00:38:07.664Z,66.30
2023-02-08T00:38:17.719Z,67.80
2023-02-08T00:38:27.691Z,69.30
2023-02-08T00:38:37.674Z,68.20
2023-02-08T00:38:47.704Z,67.80
2023-02-08T00:38:57.663Z,66.40
2023-02-08T00:39:07.674Z,65.70
2023-02-08T00:39:17.683Z,65.90
2023-02-08T00:39:27.666Z,65.80
2023-02-08T00:39:37.685Z,67.00
2023-02-08T00:39:47.675Z,65.70
2023-02-08T00:39:57.661Z,65.70
2023-02-08T00:40:07.674Z,65.80
2023-02-08T00:40:17.833Z,66.60
2023-02-08T00:40:27.665Z,66.10
2023-02-08T00:40:37.964Z,66.80
2023-02-08T00:40:47.658Z,67.00
2023-02-08T00:40:57.668Z,67.60
2023-02-08T00:41:07.673Z,67.20
2023-02-08T00:41:17.669Z,67.80
2023-02-08T00:41:27.662Z,68.70
2023-02-08T00:41:38.199Z,69.40
2023-02-08T00:41:47.652Z,69.40
2023-02-08T00:41:57.660Z,68.10
2023-02-08T00:42:07.657Z,67.50
2023-02-08T00:42:17.650Z,67.40
2023-02-08T00:42:27.677Z,67.50
2023-02-08T00:42:37.664Z,69.00
2023-02-08T00:42:47.654Z,68.00
2023-02-08T00:42:57.789Z,67.50
2023-02-08T00:43:07.741Z,65.90
2023-02-08T00:43:17.651Z,66.10
2023-02-08T00:43:27.652Z,67.00
2023-02-08T00:43:37.652Z,67.40
2023-02-08T00:43:47.650Z,67.20
2023-02-08T00:43:57.645Z,66.60
2023-02-08T00:44:07.647Z,66.30
2023-02-08T00:44:17.650Z,67.60
2023-02-08T00:44:28.215Z,68.50
2023-02-08T00:44:37.659Z,69.30
2023-02-08T00:44:47.650Z,67.80
2023-02-08T00:44:57.656Z,67.20
2023-02-08T00:45:07.643Z,66.00
2023-02-08T00:45:17.638Z,66.80
2023-02-08T00:45:27.717Z,65.90
2023-02-08T00:45:37.654Z,66.70
2023-02-08T00:45:48.206Z,66.70
2023-02-08T00:45:57.649Z,67.40
2023-02-08T00:46:07.633Z,67.40
2023-02-08T00:46:17.692Z,68.00
2023-02-08T00:46:27.697Z,68.20
2023-02-08T00:46:37.634Z,67.10
2023-02-08T00:46:47.718Z,66.00
2023-02-08T00:46:57.663Z,65.60
2023-02-08T00:47:07.647Z,65.40
2023-02-08T00:47:18.200Z,66.50
2023-02-08T00:47:27.630Z,67.50
2023-02-08T00:47:38.233Z,68.30
2023-02-08T00:47:47.652Z,68.30
2023-02-08T00:47:57.650Z,67.80
2023-02-08T00:48:07.633Z,68.70
2023-02-08T00:48:17.641Z,68.10
2023-02-08T00:48:27.660Z,68.40
2023-02-08T00:48:37.659Z,67.40
2023-02-08T00:48:47.636Z,68.20
2023-02-08T00:48:57.624Z,68.50
2023-02-08T00:49:07.631Z,69.40
2023-02-08T00:49:17.623Z,69.30
2023-02-08T00:49:27.627Z,70.10
2023-02-08T00:49:37.627Z,70.70
2023-02-08T00:49:47.649Z,70.70
2023-02-08T00:49:57.625Z,70.10
2023-02-08T00:50:07.787Z,69.60
2023-02-08T00:50:17.637Z,69.40
2023-02-08T00:50:27.618Z,69.10
2023-02-08T00:50:38.055Z,69.10
2023-02-08T00:50:47.636Z,67.80
2023-02-08T00:50:57.616Z,68.30
2023-02-08T00:51:07.637Z,67.10
2023-02-08T00:51:17.635Z,68.50
2023-02-08T00:51:28.221Z,68.70
2023-02-08T00:51:37.621Z,70.30
2023-02-08T00:51:47.614Z,69.80
2023-02-08T00:51:57.629Z,69.00
2023-02-08T00:52:07.654Z,69.10
2023-02-08T00:52:17.620Z,69.60
2023-02-08T00:52:27.618Z,69.00
2023-02-08T00:52:37.609Z,69.40
2023-02-08T00:52:47.620Z,69.30
2023-02-08T00:52:57.736Z,69.00
2023-02-08T00:53:07.624Z,68.70
2023-02-08T00:53:17.615Z,67.60
2023-02-08T00:53:27.617Z,68.60
2023-02-08T00:53:37.609Z,66.20
2023-02-08T00:53:47.610Z,66.90
2023-02-08T00:53:57.618Z,65.80
2023-02-08T00:54:07.612Z,67.00
2023-02-08T00:54:18.211Z,68.20
2023-02-08T00:54:27.646Z,69.30
2023-02-08T00:54:37.607Z,68.00
2023-02-08T00:54:47.601Z,66.00
2023-02-08T00:54:57.619Z,66.30
2023-02-08T00:55:07.609Z,67.00
2023-02-08T00:55:17.606Z,67.30
2023-02-08T00:55:27.625Z,67.20
2023-02-08T00:55:37.604Z,66.60
2023-02-08T00:55:47.724Z,67.40
2023-02-08T00:55:57.609Z,66.80
2023-02-08T00:56:07.601Z,68.30
2023-02-08T00:56:17.690Z,68.50
2023-02-08T00:56:27.633Z,67.80
2023-02-08T00:56:37.613Z,68.30
2023-02-08T00:56:47.593Z,68.10
2023-02-08T00:56:57.635Z,67.90
2023-02-08T00:57:07.671Z,67.30
2023-02-08T00:57:17.650Z,66.40
2023-02-08T00:57:27.619Z,66.70
2023-02-08T00:57:37.596Z,66.30
2023-02-08T00:57:47.605Z,66.60
2023-02-08T00:57:57.596Z,67.10
2023-02-08T00:58:07.670Z,68.50
2023-02-08T00:58:17.593Z,69.10
2023-02-08T00:58:28.232Z,69.80
2023-02-08T00:58:37.587Z,69.30
2023-02-08T00:58:48.200Z,70.40
2023-02-08T00:58:57.585Z,69.70
2023-02-08T00:59:07.606Z,69.70
2023-02-08T00:59:17.608Z,67.90
2023-02-08T00:59:27.654Z,67.70
2023-02-08T00:59:37.587Z,67.60
2023-02-08T00:59:47.600Z,67.80
2023-02-08T00:59:57.677Z,67.80
2023-02-08T01:00:07.592Z,68.30
2023-02-08T01:00:17.580Z,69.00
2023-02-08T01:00:27.608Z,68.00
2023-02-08T01:00:38.000Z,66.90
2023-02-08T01:00:47.621Z,65.50
2023-02-08T01:00:57.758Z,67.10
2023-02-08T01:01:08.236Z,66.70
2023-02-08T01:01:18.255Z,67.50
2023-02-08T01:01:27.630Z,66.50
2023-02-08T01:01:37.576Z,66.90
2023-02-08T01:01:47.636Z,66.60
2023-02-08T01:01:57.576Z,66.30
2023-02-08T01:02:07.663Z,66.80
2023-02-08T01:02:17.656Z,67.00
2023-02-08T01:02:27.604Z,67.20
2023-02-08T01:02:38.197Z,65.40
2023-02-08T01:02:47.598Z,64.30
2023-02-08T01:02:57.570Z,64.80
2023-02-08T01:03:07.573Z,65.50
2023-02-08T01:03:17.586Z,66.60
2023-02-08T01:03:27.584Z,67.50
2023-02-08T01:03:37.596Z,67.50
2023-02-08T01:03:47.571Z,66.40
2023-02-08T01:03:57.576Z,65.20
2023-02-08T01:04:07.645Z,65.00
2023-02-08T01:04:17.578Z,67.60
2023-02-08T01:04:27.584Z,68.20
2023-02-08T01:04:37.565Z,68.40
2023-02-08T01:04:47.600Z,66.40
2023-02-08T01:04:57.604Z,65.90
2023-02-08T01:05:07.566Z,66.40
2023-02-08T01:05:17.585Z,68.60
2023-02-08T01:05:28.199Z,68.20
2023-02-08T01:05:37.567Z,67.70
2023-02-08T01:05:47.573Z,65.70
2023-02-08T01:05:57.561Z,67.00
2023-02-08T01:06:07.627Z,67.30
2023-02-08T01:06:17.590Z,67.20
2023-02-08T01:06:27.575Z,66.60
2023-02-08T01:06:37.594Z,65.90
2023-02-08T01:06:47.582Z,66.00
2023-02-08T01:06:57.560Z,66.70
2023-02-08T01:07:07.572Z,67.20
2023-02-08T01:07:17.565Z,67.50
2023-02-08T01:07:27.576Z,66.30
2023-02-08T01:07:37.582Z,65.60
2023-02-08T01:07:47.572Z,64.30
2023-02-08T01:07:57.549Z,64.20
2023-02-08T01:08:07.555Z,65.50
2023-02-08T01:08:18.203Z,67.30
2023-02-08T01:08:27.564Z,67.00
2023-02-08T01:08:37.623Z,65.20
2023-02-08T01:08:47.569Z,63.60
2023-02-08T01:08:57.549Z,65.40
2023-02-08T01:09:07.659Z,66.30
2023-02-08T01:09:17.558Z,67.60
2023-02-08T01:09:27.560Z,67.50
2023-02-08T01:09:37.567Z,67.70
2023-02-08T01:09:48.176Z,68.10
2023-02-08T01:09:57.564Z,66.10
2023-02-08T01:10:07.560Z,65.80
2023-02-08T01:10:17.569Z,66.10
2023-02-08T01:10:27.561Z,67.80
2023-02-08T01:10:37.814Z,67.00
2023-02-08T01:10:47.551Z,66.00
2023-02-08T01:10:57.560Z,65.10
2023-02-08T01:11:07.654Z,66.00
2023-02-08T01:11:17.610Z,65.90
2023-02-08T01:11:27.579Z,65.70
2023-02-08T01:11:37.550Z,65.00
2023-02-08T01:11:47.540Z,65.70
2023-02-08T01:11:57.556Z,65.80
2023-02-08T01:12:07.552Z,65.50
2023-02-08T01:12:17.537Z,64.30
2023-02-08T01:12:28.195Z,63.50
2023-02-08T01:12:38.218Z,64.50
2023-02-08T01:12:47.542Z,64.40
2023-02-08T01:12:57.574Z,65.70
2023-02-08T01:13:07.544Z,64.30
2023-02-08T01:13:17.571Z,64.30
2023-02-08T01:13:27.538Z,63.20
2023-02-08T01:13:37.555Z,64.40
2023-02-08T01:13:47.550Z,64.00
2023-02-08T01:13:57.661Z,64.20
2023-02-08T01:14:07.553Z,62.90
2023-02-08T01:14:17.556Z,64.20
2023-02-08T01:14:27.601Z,64.80
2023-02-08T01:14:37.528Z,66.10
2023-02-08T01:14:47.556Z,65.40
2023-02-08T01:14:57.525Z,66.10
2023-02-08T01:15:07.552Z,66.60
2023-02-08T01:15:18.213Z,67.50
2023-02-08T01:15:27.525Z,66.50
2023-02-08T01:15:37.547Z,64.90
2023-02-08T01:15:47.558Z,63.90
2023-02-08T01:15:57.585Z,63.60
2023-02-08T01:16:07.544Z,64.80
2023-02-08T01:16:17.546Z,65.50
2023-02-08T01:16:27.639Z,65.70
2023-02-08T01:16:38.308Z,65.60
2023-02-08T01:16:47.529Z,65.20
2023-02-08T01:16:57.529Z,65.00
2023-02-08T01:17:07.527Z,64.70
2023-02-08T01:17:17.529Z,65.40
2023-02-08T01:17:27.516Z,66.20
2023-02-08T01:17:37.608Z,66.50
2023-02-08T01:17:47.521Z,65.70
2023-02-08T01:17:57.541Z,65.10
2023-02-08T01:18:07.614Z,65.80
2023-02-08T01:18:17.574Z,64.80
2023-02-08T01:18:27.519Z,64.10
2023-02-08T01:18:37.516Z,64.00
2023-02-08T01:18:47.519Z,64.10
2023-02-08T01:18:57.553Z,65.20
2023-02-08T01:19:07.532Z,63.80
2023-02-08T01:19:18.209Z,66.20
2023-02-08T01:19:27.528Z,65.80
2023-02-08T01:19:37.518Z,66.90
2023-02-08T01:19:47.511Z,65.50
2023-02-08T01:19:57.509Z,65.10
2023-02-08T01:20:07.518Z,63.60
2023-02-08T01:20:17.514Z,64.20
2023-02-08T01:20:27.516Z,64.60
2023-02-08T01:20:37.798Z,66.30
2023-02-08T01:20:47.537Z,65.20
2023-02-08T01:20:57.527Z,63.60
2023-02-08T01:21:07.509Z,63.70
2023-02-08T01:21:17.508Z,64.30
2023-02-08T01:21:27.499Z,65.70
2023-02-08T01:21:37.607Z,64.90
2023-02-08T01:21:47.503Z,64.90
2023-02-08T01:21:57.504Z,65.60
2023-02-08T01:22:07.503Z,66.40
2023-02-08T01:22:17.566Z,66.20
2023-02-08T01:22:27.497Z,66.30
2023-02-08T01:22:37.498Z,64.70
2023-02-08T01:22:47.608Z,64.40
2023-02-08T01:22:57.526Z,64.70
2023-02-08T01:23:07.494Z,67.00
2023-02-08T01:23:17.541Z,68.70
2023-02-08T01:23:27.526Z,68.60
2023-02-08T01:23:40.318Z,68.20
2023-02-08T01:23:47.507Z,66.20
2023-02-08T01:23:57.526Z,65.50
2023-02-08T01:24:07.494Z,65.00
2023-02-08T01:24:17.507Z,65.10
2023-02-08T01:24:27.525Z,66.10
2023-02-08T01:24:37.487Z,67.90
2023-02-08T01:24:47.492Z,67.60
2023-02-08T01:24:57.505Z,67.10
2023-02-08T01:25:07.565Z,64.80
2023-02-08T01:25:17.484Z,66.40
2023-02-08T01:25:27.509Z,65.80
2023-02-08T01:25:37.507Z,67.00
2023-02-08T01:25:47.491Z,67.40
2023-02-08T01:25:57.564Z,68.50
2023-02-08T01:26:07.494Z,68.00
2023-02-08T01:26:17.506Z,68.70
2023-02-08T01:26:28.202Z,67.90
2023-02-08T01:26:37.495Z,67.10
2023-02-08T01:26:47.567Z,66.20
2023-02-08T01:26:57.481Z,66.60
2023-02-08T01:27:07.502Z,68.20
2023-02-08T01:27:17.498Z,68.50
2023-02-08T01:27:27.496Z,67.90
2023-02-08T01:27:37.491Z,67.20
2023-02-08T01:27:47.509Z,67.20
2023-02-08T01:27:57.559Z,66.80
2023-02-08T01:28:07.513Z,67.00
2023-02-08T01:28:17.583Z,67.50
2023-02-08T01:28:28.212Z,67.80
2023-02-08T01:28:37.479Z,68.90
2023-02-08T01:28:47.482Z,68.30
2023-02-08T01:28:57.499Z,67.70
2023-02-08T01:29:07.481Z,67.30
2023-02-08T01:29:17.556Z,66.90
2023-02-08T01:29:27.493Z,68.10
2023-02-08T01:29:37.487Z,67.40
2023-02-08T01:29:47.474Z,67.70
2023-02-08T01:29:57.494Z,68.30
2023-02-08T01:30:07.477Z,68.50
2023-02-08T01:30:17.471Z,67.30
2023-02-08T01:30:27.514Z,66.80
2023-02-08T01:30:38.681Z,66.90
2023-02-08T01:30:47.509Z,68.50
2023-02-08T01:30:57.483Z,68.20
2023-02-08T01:31:07.521Z,68.30
2023-02-08T01:31:17.531Z,68.30
2023-02-08T01:31:27.538Z,68.00
2023-02-08T01:31:38.266Z,67.10
2023-02-08T01:31:47.633Z,66.90
2023-02-08T01:31:57.529Z,67.00
2023-02-08T01:32:07.543Z,67.00
2023-02-08T01:32:17.540Z,66.40
2023-02-08T01:32:27.466Z,65.50
2023-02-08T01:32:37.461Z,66.60
2023-02-08T01:32:47.472Z,66.60
2023-02-08T01:32:57.472Z,68.70
2023-02-08T01:33:07.484Z,68.70
2023-02-08T01:33:18.207Z,69.40
2023-02-08T01:33:27.485Z,69.20
2023-02-08T01:33:37.459Z,68.70
2023-02-08T01:33:47.470Z,68.50
2023-02-08T01:33:57.483Z,68.50
2023-02-08T01:34:07.450Z,67.70
2023-02-08T01:34:17.453Z,68.60
2023-02-08T01:34:27.484Z,67.70
2023-02-08T01:34:37.462Z,67.90
2023-02-08T01:34:47.503Z,66.70
2023-02-08T01:34:57.452Z,68.20
2023-02-08T01:35:07.458Z,68.50
2023-02-08T01:35:17.459Z,69.30
2023-02-08T01:35:27.469Z,67.20
2023-02-08T01:35:37.463Z,67.50
2023-02-08T01:35:47.477Z,66.50
2023-02-08T01:35:57.452Z,68.50
2023-02-08T01:36:07.470Z,69.20
2023-02-08T01:36:17.498Z,69.50
2023-02-08T01:36:27.449Z,68.90
2023-02-08T01:36:37.447Z,69.50
2023-02-08T01:36:47.458Z,71.10
2023-02-08T01:36:57.442Z,71.50
2023-02-08T01:37:07.504Z,71.00
2023-02-08T01:37:17.462Z,71.10
2023-02-08T01:37:27.447Z,70.00
2023-02-08T01:37:37.472Z,69.80
2023-02-08T01:37:47.456Z,69.50
2023-02-08T01:37:57.441Z,70.60
2023-02-08T01:38:07.453Z,69.70
2023-02-08T01:38:17.450Z,69.40
2023-02-08T01:38:27.457Z,68.50
2023-02-08T01:38:37.448Z,68.70
2023-02-08T01:38:47.471Z,68.40
2023-02-08T01:38:57.448Z,68.90
2023-02-08T01:39:07.628Z,69.40
2023-02-08T01:39:17.434Z,69.90
2023-02-08T01:39:27.448Z,71.40
2023-02-08T01:39:37.438Z,72.20
2023-02-08T01:39:47.472Z,72.00
2023-02-08T01:39:57.446Z,71.40
2023-02-08T01:40:07.434Z,69.60
2023-02-08T01:40:17.437Z,69.20
2023-02-08T01:40:27.452Z,70.40
2023-02-08T01:40:38.441Z,70.60
2023-02-08T01:40:48.211Z,69.80
2023-02-08T01:40:57.454Z,69.60
2023-02-08T01:41:07.446Z,71.00
2023-02-08T01:41:17.462Z,72.50
2023-02-08T01:41:28.230Z,72.30
2023-02-08T01:41:38.292Z,72.40
2023-02-08T01:41:47.456Z,71.90
2023-02-08T01:41:57.535Z,73.10
2023-02-08T01:42:08.201Z,72.60
2023-02-08T01:42:17.465Z,73.40
2023-02-08T01:42:27.420Z,72.60
2023-02-08T01:42:37.428Z,73.10
2023-02-08T01:42:47.438Z,73.00
2023-02-08T01:42:57.434Z,71.30
2023-02-08T01:43:07.421Z,71.10
2023-02-08T01:43:17.450Z,70.60
2023-02-08T01:43:27.426Z,70.80
2023-02-08T01:43:37.418Z,71.60
2023-02-08T01:43:47.441Z,71.50
2023-02-08T01:43:57.448Z,72.90
2023-02-08T01:44:08.198Z,72.40
2023-02-08T01:44:17.452Z,71.90
2023-02-08T01:44:27.423Z,71.80
2023-02-08T01:44:37.419Z,72.40
2023-02-08T01:44:47.430Z,74.10
2023-02-08T01:44:57.431Z,74.50
2023-02-08T01:45:07.415Z,73.50
2023-02-08T01:45:18.220Z,73.00
2023-02-08T01:45:27.457Z,71.60
2023-02-08T01:45:37.460Z,71.60
2023-02-08T01:45:47.446Z,71.10
2023-02-08T01:45:57.455Z,72.70
2023-02-08T01:46:07.560Z,72.90
2023-02-08T01:46:17.406Z,71.80
2023-02-08T01:46:27.403Z,72.60
2023-02-08T01:46:37.416Z,73.80
2023-02-08T01:46:47.427Z,74.80
2023-02-08T01:46:57.410Z,73.80
2023-02-08T01:47:07.406Z,72.20
2023-02-08T01:47:17.419Z,71.90
2023-02-08T01:47:28.338Z,73.20
2023-02-08T01:47:37.403Z,74.20
2023-02-08T01:47:47.401Z,75.30
2023-02-08T01:47:57.412Z,74.30
2023-02-08T01:48:07.409Z,74.10
2023-02-08T01:48:17.417Z,72.40
2023-02-08T01:48:28.227Z,72.50
2023-02-08T01:48:37.416Z,72.60
2023-02-08T01:48:47.397Z,73.10
2023-02-08T01:48:57.405Z,71.60
2023-02-08T01:49:07.397Z,71.60
2023-02-08T01:49:17.408Z,71.20
2023-02-08T01:49:27.439Z,72.10
2023-02-08T01:49:37.423Z,71.90
2023-02-08T01:49:47.399Z,72.40
2023-02-08T01:49:57.410Z,71.80
2023-02-08T01:50:07.390Z,71.70
2023-02-08T01:50:17.408Z,71.90
2023-02-08T01:50:27.401Z,72.60
2023-02-08T01:50:37.524Z,73.30
2023-02-08T01:50:47.395Z,73.20
2023-02-08T01:50:57.406Z,73.30
2023-02-08T01:51:07.395Z,73.20
2023-02-08T01:51:17.394Z,73.60
2023-02-08T01:51:27.391Z,75.40
2023-02-08T01:51:37.496Z,74.10
2023-02-08T01:51:47.382Z,75.20
2023-02-08T01:51:57.464Z,73.90
2023-02-08T01:52:07.384Z,75.10
2023-02-08T01:52:17.406Z,74.10
2023-02-08T01:52:27.444Z,73.60
2023-02-08T01:52:37.442Z,74.00
2023-02-08T01:52:47.413Z,76.00
2023-02-08T01:52:57.382Z,75.70
2023-02-08T01:53:07.447Z,76.20
2023-02-08T01:53:17.393Z,74.00
2023-02-08T01:53:27.387Z,73.50
2023-02-08T01:53:37.392Z,72.40
2023-02-08T01:53:47.380Z,72.00
2023-02-08T01:53:57.413Z,73.00
2023-02-08T01:54:07.384Z,73.40
2023-02-08T01:54:17.394Z,74.30
2023-02-08T01:54:27.379Z,73.40
2023-02-08T01:54:37.549Z,73.20
2023-02-08T01:54:47.374Z,73.80
2023-02-08T01:54:57.376Z,75.00
2023-02-08T01:55:07.400Z,76.00
2023-02-08T01:55:17.370Z,74.50
2023-02-08T01:55:27.370Z,75.00
2023-02-08T01:55:37.400Z,75.10
2023-02-08T01:55:47.376Z,76.40
2023-02-08T01:55:57.371Z,75.60
2023-02-08T01:56:07.476Z,76.20
2023-02-08T01:56:17.391Z,75.90
2023-02-08T01:56:27.366Z,76.70
2023-02-08T01:56:37.371Z,75.00
2023-02-08T01:56:47.383Z,74.40
2023-02-08T01:56:57.371Z,72.90
2023-02-08T01:57:07.383Z,73.00
2023-02-08T01:57:17.446Z,74.30
2023-02-08T01:57:27.372Z,75.30
2023-02-08T01:57:37.373Z,75.60
2023-02-08T01:57:47.414Z,74.80
2023-02-08T01:57:57.375Z,74.70
2023-02-08T01:58:07.370Z,74.90
2023-02-08T01:58:17.384Z,74.60
2023-02-08T01:58:27.372Z,73.80
2023-02-08T01:58:37.383Z,73.10
2023-02-08T01:58:47.361Z,74.00
2023-02-08T01:58:57.395Z,73.80
2023-02-08T01:59:07.357Z,74.90
2023-02-08T01:59:17.359Z,74.90
2023-02-08T01:59:27.368Z,76.00
2023-02-08T01:59:37.353Z,74.10
2023-02-08T01:59:47.362Z,72.80
2023-02-08T01:59:57.364Z,72.50
2023-02-08T02:00:07.464Z,72.60
2023-02-08T02:00:17.365Z,73.90
2023-02-08T02:00:27.381Z,72.90
2023-02-08T02:00:37.364Z,73.60
2023-02-08T02:00:47.390Z,73.90
2023-02-08T02:00:57.384Z,75.30
2023-02-08T02:01:07.364Z,76.30
2023-02-08T02:01:17.439Z,75.60
2023-02-08T02:01:28.309Z,74.90
2023-02-08T02:01:37.365Z,73.50
2023-02-08T02:01:47.358Z,73.80
2023-02-08T02:01:57.356Z,74.70
2023-02-08T02:02:07.345Z,76.30
2023-02-08T02:02:17.364Z,74.70
2023-02-08T02:02:27.363Z,74.20
2023-02-08T02:02:37.346Z,74.10
2023-02-08T02:02:47.364Z,74.70
2023-02-08T02:02:57.418Z,75.20
2023-02-08T02:03:07.349Z,74.90
2023-02-08T02:03:17.349Z,75.60
2023-02-08T02:03:27.397Z,74.60
2023-02-08T02:03:37.371Z,74.70
2023-02-08T02:03:47.403Z,76.30
2023-02-08T02:03:57.353Z,76.70
2023-02-08T02:04:08.357Z,76.40
2023-02-08T02:04:17.430Z,74.60
2023-02-08T02:04:27.376Z,74.20
2023-02-08T02:04:37.396Z,74.70
2023-02-08T02:04:47.362Z,75.10
2023-02-08T02:04:57.342Z,75.00
2023-02-08T02:05:07.356Z,75.40
2023-02-08T02:05:17.333Z,75.10
2023-02-08T02:05:27.333Z,75.70
2023-02-08T02:05:38.211Z,73.80
2023-02-08T02:05:47.340Z,72.90
2023-02-08T02:05:57.355Z,72.50
2023-02-08T02:06:07.346Z,72.80
2023-02-08T02:06:17.347Z,73.70
2023-02-08T02:06:27.341Z,74.80
2023-02-08T02:06:37.327Z,76.20
2023-02-08T02:06:47.333Z,75.80
2023-02-08T02:06:57.342Z,74.50
2023-02-08T02:07:07.383Z,74.20
2023-02-08T02:07:17.332Z,76.80
2023-02-08T02:07:27.337Z,77.40
2023-02-08T02:07:37.345Z,77.50
2023-02-08T02:07:47.324Z,76.10
2023-02-08T02:07:57.369Z,75.80
2023-02-08T02:08:07.381Z,75.60
2023-02-08T02:08:17.327Z,74.30
2023-02-08T02:08:27.347Z,73.70
2023-02-08T02:08:37.325Z,73.90
2023-02-08T02:08:47.322Z,75.00